Time;durP1;ratioP1;P1;durP2;ratioP2;P2;SDS_P1;SDS_P2;PMS_P1;PMS_P2;Temp;Humidity;BMP_temperature;BMP_pressure;BME280_temperature;BME280_humidity;BME280_pressure;Samples;Min_cycle;Max_cycle;Signal;HPM_P1;HPM_P2
2023/09/10 00:00:06;;;;;;;2.75;2.55;;;;;;;19.99;97.70;98747.47;4139991;28;20223;-85
2023/09/10 00:02:07;;;;;;;3.53;2.38;;;;;;;19.93;97.87;98751.47;4168549;28;20295;-85
2023/09/10 00:04:09;;;;;;;2.58;2.38;;;;;;;19.86;97.77;98749.06;4156377;28;20647;-85
2023/09/10 00:06:13;;;;;;;2.08;1.52;;;;;;;19.85;97.78;98743.84;4160240;28;20235;-85
2023/09/10 00:08:15;;;;;;;2.65;2.45;;;;;;;19.74;98.48;98745.97;4135234;28;20236;-85
2023/09/10 00:10:17;;;;;;;3.30;2.03;;;;;;;19.74;99.45;98740.41;4155066;28;20742;-85
2023/09/10 00:12:19;;;;;;;3.88;2.40;;;;;;;19.72;99.40;98747.41;4150891;28;20204;-85
2023/09/10 00:14:20;;;;;;;3.33;2.55;;;;;;;19.75;99.55;98749.56;4153529;28;20263;-85
2023/09/10 00:16:22;;;;;;;1.90;1.77;;;;;;;19.72;98.95;98750.19;4167649;28;20222;-86
2023/09/10 00:18:24;;;;;;;2.78;2.30;;;;;;;19.70;98.80;98750.47;4156952;28;20213;-86
2023/09/10 00:20:26;;;;;;;4.22;2.45;;;;;;;19.68;98.29;98740.78;4144335;28;20244;-86
2023/09/10 00:22:28;;;;;;;1.85;1.75;;;;;;;19.70;98.12;98744.09;4152663;28;20660;-85
2023/09/10 00:24:30;;;;;;;3.15;2.53;;;;;;;19.75;98.29;98749.56;4135058;28;20681;-86
2023/09/10 00:26:31;;;;;;;10.10;4.18;;;;;;;19.75;97.81;98746.78;4141678;28;20209;-85
2023/09/10 00:28:33;;;;;;;3.30;2.55;;;;;;;19.68;97.33;98752.75;4155730;28;20209;-86
2023/09/10 00:30:35;;;;;;;1.80;1.63;;;;;;;19.54;97.68;98746.31;4170241;28;20625;-85
2023/09/10 00:32:36;;;;;;;2.33;2.13;;;;;;;19.56;96.91;98748.75;4153367;28;20209;-86
2023/09/10 00:34:50;;;;;;;2.03;1.88;;;;;;;19.58;97.18;98750.13;4158604;28;20208;-86
2023/09/10 00:36:52;;;;;;;1.75;1.63;;;;;;;19.58;96.90;98740.97;4137457;28;20267;-86
2023/09/10 00:38:54;;;;;;;10.63;2.45;;;;;;;19.67;97.02;98739.16;4136623;28;20217;-85
2023/09/10 00:40:55;;;;;;;1.75;1.30;;;;;;;19.60;96.64;98744.28;4154413;28;20328;-85
2023/09/10 00:42:57;;;;;;;1.77;1.67;;;;;;;19.54;96.84;98739.91;4154306;28;20229;-86
2023/09/10 00:44:58;;;;;;;2.97;2.53;;;;;;;19.45;97.25;98741.75;4152086;28;20833;-86
2023/09/10 00:47:00;;;;;;;2.55;2.17;;;;;;;19.35;97.72;98741.88;4152338;28;20208;-85
2023/09/10 00:49:01;;;;;;;2.78;2.53;;;;;;;19.28;98.22;98741.44;4152217;28;21311;-85
2023/09/10 00:51:06;;;;;;;3.55;3.25;;;;;;;19.32;98.46;98740.53;4139969;28;20351;-86
2023/09/10 00:53:11;;;;;;;1.52;1.38;;;;;;;19.24;98.92;98729.31;4136131;28;20210;-86
2023/09/10 00:55:14;;;;;;;2.05;1.85;;;;;;;19.26;99.02;98732.59;4166963;28;20262;-86
2023/09/10 00:57:16;;;;;;;2.60;2.38;;;;;;;19.26;99.53;98733.41;4140070;28;20212;-86
2023/09/10 00:59:20;;;;;;;2.35;1.83;;;;;;;19.25;99.08;98730.97;4149787;28;20215;-86
2023/09/10 01:01:22;;;;;;;3.03;2.65;;;;;;;19.30;98.81;98733.63;4133196;28;20722;-85
2023/09/10 01:03:25;;;;;;;2.70;2.50;;;;;;;19.29;98.88;98737.53;4152676;28;20903;-84
2023/09/10 01:05:26;;;;;;;2.83;1.92;;;;;;;19.16;99.26;98727.16;4152139;28;20223;-86
2023/09/10 01:07:28;;;;;;;3.88;2.67;;;;;;;19.19;99.74;98741.25;4153475;28;20657;-85
2023/09/10 01:09:30;;;;;;;5.65;2.40;;;;;;;19.22;99.79;98740.72;4149750;28;20295;-87
2023/09/10 01:11:56;;;;;;;1.73;0.98;;;;;;;19.22;99.41;98737.94;4152991;28;20232;-85
2023/09/10 01:14:10;;;;;;;5.13;3.90;;;;;;;19.28;99.61;98730.34;4152505;28;20211;-85
2023/09/10 01:16:37;;;;;;;5.45;3.20;;;;;;;19.26;100.00;98727.06;4152410;28;20336;-85
2023/09/10 01:18:47;;;;;;;2.13;2.03;;;;;;;19.17;99.65;98731.59;4168732;28;20702;-86
2023/09/10 01:21:07;;;;;;;5.50;2.45;;;;;;;19.10;99.49;98737.50;4169372;28;20230;-86
2023/09/10 01:23:23;;;;;;;1.10;1.00;;;;;;;19.12;100.00;98726.13;4165535;28;20199;-85
2023/09/10 01:25:25;;;;;;;2.50;2.30;;;;;;;19.08;99.93;98736.16;4169844;28;20299;-86
2023/09/10 01:27:26;;;;;;;2.55;2.45;;;;;;;19.03;99.57;98727.91;4152137;28;20207;-85
2023/09/10 01:29:28;;;;;;;2.05;1.85;;;;;;;19.04;99.86;98729.56;4138303;28;20233;-86
2023/09/10 01:31:34;;;;;;;2.33;2.15;;;;;;;19.02;99.27;98729.03;4156107;28;20315;-85
2023/09/10 01:33:37;;;;;;;1.73;1.63;;;;;;;18.95;99.86;98720.25;4169114;28;20207;-85
2023/09/10 01:35:47;;;;;;;2.58;1.77;;;;;;;18.93;99.95;98719.75;4158248;28;20255;-85
2023/09/10 01:38:16;;;;;;;2.60;1.83;;;;;;;18.86;100.00;98722.88;4167273;28;20199;-86
2023/09/10 01:40:21;;;;;;;2.88;1.90;;;;;;;18.87;100.00;98718.16;4165680;28;20294;-86
2023/09/10 01:42:23;;;;;;;1.75;1.50;;;;;;;18.87;100.00;98718.16;4153003;28;20695;-86
2023/09/10 01:44:25;;;;;;;2.03;1.92;;;;;;;18.85;100.00;98714.88;4153027;28;20288;-86
2023/09/10 01:46:27;;;;;;;2.22;1.90;;;;;;;18.89;100.00;98727.84;4151802;28;20208;-85
2023/09/10 01:48:29;;;;;;;2.60;2.35;;;;;;;18.86;99.91;98724.84;4167271;28;20199;-86
2023/09/10 01:50:31;;;;;;;2.55;1.73;;;;;;;18.77;99.70;98723.88;4151235;28;20232;-86
2023/09/10 01:52:33;;;;;;;1.42;1.33;;;;;;;18.71;98.96;98719.50;4132493;28;20209;-85
2023/09/10 01:54:34;;;;;;;1.85;1.70;;;;;;;18.72;99.29;98721.97;4155891;28;20220;-86
2023/09/10 01:56:36;;;;;;;1.92;1.83;;;;;;;18.79;99.25;98724.38;4150106;28;20244;-86
2023/09/10 01:58:38;;;;;;;3.17;1.90;;;;;;;18.73;99.02;98722.78;4150134;28;20204;-85
2023/09/10 02:00:57;;;;;;;2.85;1.90;;;;;;;18.64;98.20;98716.28;4149550;28;20220;-86
2023/09/10 02:02:59;;;;;;;2.47;1.85;;;;;;;18.66;98.45;98716.78;4149367;28;20208;-85
2023/09/10 02:05:01;;;;;;;1.33;1.30;;;;;;;18.62;98.91;98710.19;4168093;28;20196;-86
2023/09/10 02:07:02;;;;;;;2.03;1.67;;;;;;;18.52;98.99;98721.41;4153248;28;20687;-85
2023/09/10 02:09:04;;;;;;;2.38;2.22;;;;;;;18.54;98.47;98713.59;4152297;28;20196;-86
2023/09/10 02:11:05;;;;;;;2.90;1.52;;;;;;;18.54;98.71;98710.84;4150784;28;20774;-86
2023/09/10 02:13:07;;;;;;;2.03;1.70;;;;;;;18.56;98.50;98708.59;4153242;28;20214;-85
2023/09/10 02:15:09;;;;;;;1.77;1.67;;;;;;;18.59;98.27;98710.78;4136519;28;20257;-84
2023/09/10 02:17:10;;;;;;;1.50;1.40;;;;;;;18.60;98.32;98713.25;4139774;28;20267;-86
2023/09/10 02:19:12;;;;;;;3.05;2.75;;;;;;;18.52;98.79;98715.88;4151395;28;20220;-86
2023/09/10 02:21:13;;;;;;;1.67;1.58;;;;;;;18.49;98.49;98716.44;4135406;28;20225;-86
2023/09/10 02:23:20;;;;;;;2.50;2.13;;;;;;;18.36;98.33;98720.75;4150132;28;20742;-86
2023/09/10 02:25:22;;;;;;;1.85;1.60;;;;;;;18.29;99.14;98713.88;4170279;28;20212;-86
2023/09/10 02:27:26;;;;;;;10.80;3.10;;;;;;;18.28;99.32;98720.53;4153720;28;20216;-85
2023/09/10 02:29:28;;;;;;;1.73;1.63;;;;;;;18.30;99.29;98719.16;4148824;28;20208;-85
2023/09/10 02:31:29;;;;;;;1.85;1.58;;;;;;;18.21;99.16;98715.38;4139069;28;20295;-86
2023/09/10 02:33:31;;;;;;;2.53;2.25;;;;;;;18.22;98.81;98719.78;4151058;28;20205;-85
2023/09/10 02:35:33;;;;;;;1.85;1.75;;;;;;;18.25;98.74;98712.84;4139475;28;20283;-85
2023/09/10 02:37:34;;;;;;;5.97;1.50;;;;;;;18.14;98.54;98714.91;4135283;28;20684;-86
2023/09/10 02:39:36;;;;;;;2.20;1.55;;;;;;;18.17;98.23;98719.84;4153656;28;20205;-85
2023/09/10 02:41:37;;;;;;;2.20;2.03;;;;;;;18.17;98.26;98719.00;4152105;28;20814;-86
2023/09/10 02:43:39;;;;;;;1.83;1.48;;;;;;;18.22;98.06;98722.56;4150127;28;20213;-86
2023/09/10 02:45:41;;;;;;;2.08;1.85;;;;;;;18.27;98.23;98719.75;4152931;28;20201;-86
2023/09/10 02:47:42;;;;;;;1.30;1.20;;;;;;;18.32;98.21;98724.41;4136126;28;20230;-86
2023/09/10 02:49:44;;;;;;;1.83;1.35;;;;;;;18.29;98.10;98719.41;4155732;28;20290;-85
2023/09/10 02:51:45;;;;;;;3.97;2.42;;;;;;;18.22;97.76;98716.19;4149773;28;20688;-85
2023/09/10 02:53:51;;;;;;;1.40;1.30;;;;;;;18.16;96.94;98718.19;4138027;28;20296;-86
2023/09/10 02:56:03;;;;;;;2.90;2.45;;;;;;;18.15;97.50;98726.78;4155861;28;20220;-86
2023/09/10 02:58:06;;;;;;;19.98;1.52;;;;;;;18.15;97.29;98726.78;4151081;28;20238;-86
2023/09/10 03:00:08;;;;;;;3.33;2.55;;;;;;;18.16;97.78;98722.88;4151920;28;20208;-86
2023/09/10 03:02:10;;;;;;;1.70;1.55;;;;;;;18.11;97.58;98731.28;4140216;28;20227;-86
2023/09/10 03:04:13;;;;;;;1.70;1.60;;;;;;;18.09;97.86;98725.19;4135157;28;20241;-83
2023/09/10 03:06:14;;;;;;;2.20;2.00;;;;;;;18.01;98.05;98731.38;4133241;28;20228;-86
2023/09/10 03:08:16;;;;;;;11.82;1.77;;;;;;;17.92;98.38;98724.81;4165480;28;20220;-85
2023/09/10 03:10:29;;;;;;;2.17;1.58;;;;;;;17.87;98.52;98735.94;4153327;28;20703;-85
2023/09/10 03:12:31;;;;;;;2.92;1.65;;;;;;;17.87;98.74;98731.25;4138056;28;20288;-85
2023/09/10 03:14:33;;;;;;;2.30;1.65;;;;;;;17.84;98.87;98731.81;4140757;28;20774;-86
2023/09/10 03:16:36;;;;;;;3.17;2.13;;;;;;;17.84;98.67;98736.53;4152589;28;20197;-87
2023/09/10 03:18:38;;;;;;;3.72;2.97;;;;;;;17.87;98.52;98735.94;4139524;28;20213;-85
2023/09/10 03:20:41;;;;;;;4.68;2.58;;;;;;;17.84;98.00;98731.81;4135345;28;20222;-85
2023/09/10 03:22:42;;;;;;;1.85;1.67;;;;;;;17.84;98.35;98719.94;4153208;28;20209;-86
2023/09/10 03:24:51;;;;;;;1.70;1.58;;;;;;;17.75;98.88;98721.66;4151554;28;20225;-86
2023/09/10 03:26:53;;;;;;;1.77;1.67;;;;;;;17.71;99.23;98726.16;4134079;28;20260;-85
2023/09/10 03:28:56;;;;;;;3.35;1.88;;;;;;;17.74;99.17;98723.63;4159610;28;20296;-86
2023/09/10 03:30:58;;;;;;;1.30;1.25;;;;;;;17.68;99.15;98721.16;4159215;28;20253;-85
2023/09/10 03:33:01;;;;;;;2.00;1.85;;;;;;;17.63;99.53;98729.50;4142098;28;20236;-85
2023/09/10 03:35:04;;;;;;;1.50;1.40;;;;;;;17.67;100.00;98731.44;4150703;28;20259;-86
2023/09/10 03:37:06;;;;;;;2.30;2.10;;;;;;;17.58;100.00;98729.59;4149349;28;20279;-85
2023/09/10 03:39:08;;;;;;;1.30;1.20;;;;;;;17.55;100.00;98732.91;4134344;28;20267;-85
2023/09/10 03:41:09;;;;;;;2.25;1.98;;;;;;;17.55;100.00;98738.44;4150785;28;20380;-85
2023/09/10 03:43:11;;;;;;;3.55;2.95;;;;;;;17.59;100.00;98734.00;4138934;28;20328;-86
2023/09/10 03:45:17;;;;;;;1.45;1.35;;;;;;;17.60;100.00;98724.56;4154004;28;20203;-85
2023/09/10 03:47:19;;;;;;;1.92;1.73;;;;;;;17.49;100.00;98728.53;4153739;28;20300;-85
2023/09/10 03:49:30;;;;;;;1.55;1.45;;;;;;;17.49;100.00;98728.53;4153089;28;20208;-86
2023/09/10 03:51:32;;;;;;;1.25;1.08;;;;;;;17.43;100.00;98725.00;4153057;28;20726;-86
2023/09/10 03:53:33;;;;;;;1.73;1.52;;;;;;;17.39;100.00;98728.63;4154631;28;20201;-86
2023/09/10 03:55:35;;;;;;;1.67;1.58;;;;;;;17.42;100.00;98728.88;4151530;28;20262;-86
2023/09/10 03:57:36;;;;;;;1.40;1.00;;;;;;;17.47;100.00;98726.06;4154835;28;20899;-86
2023/09/10 03:59:38;;;;;;;5.65;2.45;;;;;;;17.47;100.00;98736.31;4153301;28;20208;-85
2023/09/10 04:01:40;;;;;;;2.15;1.80;;;;;;;17.45;100.00;98730.25;4137603;28;20229;-86
2023/09/10 04:03:52;;;;;;;1.67;1.58;;;;;;;17.39;100.00;98728.63;4166158;28;20212;-86
2023/09/10 04:05:54;;;;;;;1.63;1.10;;;;;;;17.33;100.00;98730.56;4155307;28;20633;-85
2023/09/10 04:07:56;;;;;;;1.95;1.75;;;;;;;17.23;100.00;98729.81;4154147;28;20641;-85
2023/09/10 04:09:57;;;;;;;2.95;1.15;;;;;;;17.21;100.00;98732.03;4143218;28;20209;-85
2023/09/10 04:11:59;;;;;;;1.73;1.55;;;;;;;17.23;100.00;98727.88;4154343;28;20224;-86
2023/09/10 04:14:01;;;;;;;7.22;2.15;;;;;;;17.19;100.00;98731.50;4153740;28;20579;-86
2023/09/10 04:16:03;;;;;;;1.48;1.38;;;;;;;17.22;100.00;98733.69;4142033;28;20627;-86
2023/09/10 04:18:05;;;;;;;2.45;2.08;;;;;;;17.24;100.00;98736.97;4136726;28;20278;-85
2023/09/10 04:20:09;;;;;;;1.38;1.27;;;;;;;17.24;100.00;98739.75;4176178;28;20215;-86
2023/09/10 04:22:11;;;;;;;2.55;2.35;;;;;;;17.17;100.00;98730.94;4148938;28;20205;-86
2023/09/10 04:24:13;;;;;;;1.98;1.80;;;;;;;17.19;100.00;98737.84;4151629;28;20659;-86
2023/09/10 04:26:14;;;;;;;1.02;1.02;;;;;;;17.22;100.00;98733.69;4159858;28;20579;-85
2023/09/10 04:28:16;;;;;;;2.25;1.77;;;;;;;17.17;100.00;98736.47;4150976;28;20277;-84
2023/09/10 04:30:25;;;;;;;2.55;1.52;;;;;;;17.08;100.00;98731.88;4161155;28;20228;-85
2023/09/10 04:32:26;;;;;;;1.60;1.50;;;;;;;17.05;100.00;98733.28;4137711;28;20300;-85
2023/09/10 04:34:28;;;;;;;2.97;2.35;;;;;;;17.07;100.00;98739.34;4151782;28;20209;-86
2023/09/10 04:36:30;;;;;;;1.77;1.40;;;;;;;17.02;100.00;98737.44;4151829;28;20319;-86
2023/09/10 04:38:31;;;;;;;2.72;2.13;;;;;;;17.00;100.00;98739.63;4172316;28;20629;-86
2023/09/10 04:40:33;;;;;;;2.67;1.33;;;;;;;16.90;100.00;98740.81;4137095;28;20225;-86
2023/09/10 04:42:35;;;;;;;2.45;1.73;;;;;;;16.94;100.00;98737.19;4141558;28;20210;-85
2023/09/10 04:44:36;;;;;;;3.50;3.00;;;;;;;16.90;100.00;98741.63;4142929;28;20209;-86
2023/09/10 04:46:38;;;;;;;3.00;2.72;;;;;;;16.98;100.00;98738.28;4137263;28;20237;-86
2023/09/10 04:48:39;;;;;;;1.50;1.40;;;;;;;16.99;100.00;98739.94;4136846;28;20304;-85
2023/09/10 04:50:41;;;;;;;3.38;2.28;;;;;;;16.98;100.00;98741.06;4151435;28;20229;-86
2023/09/10 04:52:53;;;;;;;2.00;1.65;;;;;;;17.03;100.00;98743.78;4158172;28;20215;-85
2023/09/10 04:54:55;;;;;;;2.92;1.98;;;;;;;16.99;100.00;98745.47;4151462;28;20206;-85
2023/09/10 04:56:56;;;;;;;2.05;1.92;;;;;;;16.98;100.00;98741.88;4157262;28;20247;-85
2023/09/10 04:59:00;;;;;;;3.92;2.33;;;;;;;17.02;100.00;98742.97;4135768;28;20206;-86
2023/09/10 05:01:02;;;;;;;4.07;3.15;;;;;;;17.03;100.00;98746.53;4150508;28;20248;-86
2023/09/10 05:03:04;;;;;;;3.53;2.13;;;;;;;17.03;100.00;98752.06;4151040;28;20318;-85
2023/09/10 05:05:06;;;;;;;2.05;1.75;;;;;;;17.04;100.00;98753.72;4138840;28;20209;-86
2023/09/10 05:07:21;;;;;;;1.70;1.48;;;;;;;16.99;100.00;98756.53;4166102;28;20248;-85
2023/09/10 05:09:22;;;;;;;4.72;1.88;;;;;;;16.98;99.79;98754.88;4149623;28;20305;-86
2023/09/10 05:11:24;;;;;;;10.52;1.58;;;;;;;16.95;99.88;98754.63;4153375;28;20279;-86
2023/09/10 05:13:26;;;;;;;1.85;1.65;;;;;;;16.89;100.00;98759.34;4153535;28;20209;-86
2023/09/10 05:15:27;;;;;;;2.60;2.03;;;;;;;16.87;100.00;98757.97;4166009;28;20258;-85
2023/09/10 05:17:29;;;;;;;2.33;2.13;;;;;;;16.90;100.00;98763.75;4142295;28;21254;-85
2023/09/10 05:19:31;;;;;;;1.63;1.45;;;;;;;16.97;100.00;98769.78;4153473;28;20577;-85
2023/09/10 05:21:32;;;;;;;2.55;1.65;;;;;;;16.98;100.00;98766.75;4136579;28;20702;-85
2023/09/10 05:23:34;;;;;;;4.95;3.10;;;;;;;16.89;100.00;98767.63;4157295;28;20205;-85
2023/09/10 05:25:43;;;;;;;4.88;2.30;;;;;;;16.93;100.00;98779.78;4153615;28;20638;-85
2023/09/10 05:27:47;;;;;;;4.18;1.50;;;;;;;16.94;100.00;98778.66;4150718;28;20271;-85
2023/09/10 05:29:48;;;;;;;2.40;1.40;;;;;;;16.95;100.00;98776.75;4151328;28;20255;-85
2023/09/10 05:31:50;;;;;;;1.45;1.35;;;;;;;16.93;100.00;98774.25;4133411;28;20284;-85
2023/09/10 05:33:52;;;;;;;2.58;1.52;;;;;;;16.93;100.00;98780.59;4150940;28;20202;-84
2023/09/10 05:35:57;;;;;;;10.07;2.42;;;;;;;16.95;100.00;98777.56;4165867;28;20228;-85
2023/09/10 05:37:59;;;;;;;1.67;1.55;;;;;;;16.98;100.00;98774.25;4167234;28;20354;-85
2023/09/10 05:40:01;;;;;;;2.13;1.95;;;;;;;16.97;100.00;98778.09;4156198;28;20240;-85
2023/09/10 05:42:16;;;;;;;1.58;1.48;;;;;;;17.00;100.00;98786.63;4149017;28;20217;-84
2023/09/10 05:44:17;;;;;;;2.30;1.30;;;;;;;16.98;100.00;98777.00;4134418;28;20232;-85
2023/09/10 05:46:19;;;;;;;2.60;2.25;;;;;;;16.99;100.00;98778.66;4135646;28;20205;-85
2023/09/10 05:48:22;;;;;;;2.60;2.38;;;;;;;17.08;100.00;98782.47;4136793;28;20221;-85
2023/09/10 05:50:23;;;;;;;3.03;1.17;;;;;;;17.05;100.00;98778.31;4153094;28;20234;-83
2023/09/10 05:52:25;;;;;;;2.83;1.38;;;;;;;17.09;100.00;98786.88;4153954;28;20220;-84
2023/09/10 05:54:29;;;;;;;1.73;1.55;;;;;;;17.12;100.00;98778.03;4156253;28;20349;-85
2023/09/10 05:56:38;;;;;;;2.50;2.30;;;;;;;17.18;100.00;98782.41;4151232;28;20221;-85
2023/09/10 05:58:39;;;;;;;2.08;1.67;;;;;;;17.21;100.00;98776.31;4153350;28;20235;-84
2023/09/10 06:00:41;;;;;;;1.77;1.67;;;;;;;17.33;100.00;98782.31;4153934;28;20236;-84
2023/09/10 06:02:43;;;;;;;3.22;1.90;;;;;;;17.60;100.00;98780.72;4154765;28;20247;-84
2023/09/10 06:04:45;;;;;;;2.95;2.50;;;;;;;17.57;100.00;98786.88;4153906;28;20716;-85
2023/09/10 06:06:47;;;;;;;5.32;2.70;;;;;;;17.80;100.00;98791.66;4155728;28;20638;-84
2023/09/10 06:08:48;;;;;;;2.17;1.90;;;;;;;18.04;100.00;98797.28;4149031;28;20826;-84
2023/09/10 06:10:50;;;;;;;1.85;1.60;;;;;;;18.20;100.00;98804.31;4137510;28;20225;-85
2023/09/10 06:12:51;;;;;;;2.88;2.00;;;;;;;18.42;100.00;98799.13;4136140;28;20275;-84
2023/09/10 06:14:53;;;;;;;1.75;1.55;;;;;;;18.46;100.00;98801.00;4169406;28;20733;-85
2023/09/10 06:16:54;;;;;;;3.00;2.75;;;;;;;18.52;100.00;98801.78;4153721;28;20723;-85
2023/09/10 06:18:56;;;;;;;1.60;1.50;;;;;;;18.96;100.00;98799.56;4149307;28;20655;-85
2023/09/10 06:21:09;;;;;;;2.22;1.25;;;;;;;19.28;100.00;98799.72;4168090;28;20728;-85
2023/09/10 06:23:11;;;;;;;1.23;1.13;;;;;;;19.77;99.60;98794.53;4151851;28;20640;-85
2023/09/10 06:25:12;;;;;;;1.33;1.23;;;;;;;20.21;95.84;98795.75;4152159;28;20201;-84
2023/09/10 06:27:14;;;;;;;1.52;1.42;;;;;;;20.58;93.53;98803.91;4149375;28;20256;-86
2023/09/10 06:29:16;;;;;;;1.55;1.45;;;;;;;21.01;91.45;98804.47;4138049;28;20233;-84
2023/09/10 06:31:17;;;;;;;2.40;1.90;;;;;;;21.28;87.56;98801.66;4150809;28;20805;-84
2023/09/10 06:33:19;;;;;;;1.20;1.10;;;;;;;21.71;85.52;98806.50;4134366;28;20276;-84
2023/09/10 06:35:20;;;;;;;2.42;2.22;;;;;;;21.86;83.95;98805.34;4149902;28;20580;-85
2023/09/10 06:37:22;;;;;;;1.90;1.80;;;;;;;22.33;81.66;98811.09;4135657;28;20228;-84
2023/09/10 06:39:24;;;;;;;2.67;1.92;;;;;;;22.21;81.06;98813.63;4170170;28;20262;-85
2023/09/10 06:41:25;;;;;;;4.32;2.72;;;;;;;22.61;80.51;98814.53;4166148;28;20224;-84
2023/09/10 06:43:27;;;;;;;1.25;1.15;;;;;;;22.85;77.37;98806.63;4136511;28;20295;-85
2023/09/10 06:45:28;;;;;;;2.53;1.67;;;;;;;22.86;78.26;98819.41;4141208;28;20240;-83
2023/09/10 06:47:30;;;;;;;2.90;1.48;;;;;;;22.68;77.09;98817.69;4150925;28;20208;-84
2023/09/10 06:49:32;;;;;;;2.03;1.88;;;;;;;22.65;78.09;98818.34;4141098;28;20209;-84
2023/09/10 06:51:34;;;;;;;11.88;3.17;;;;;;;21.90;83.35;98811.94;4154413;28;20231;-83
2023/09/10 06:53:44;;;;;;;2.15;2.00;;;;;;;22.46;80.85;98814.97;4133614;28;20249;-84
2023/09/10 06:55:45;;;;;;;3.10;1.70;;;;;;;22.66;81.52;98820.00;4151758;28;21344;-84
2023/09/10 06:57:47;;;;;;;3.03;1.85;;;;;;;21.98;82.22;98825.09;4136350;28;20838;-83
2023/09/10 06:59:48;;;;;;;3.17;2.10;;;;;;;22.22;82.61;98822.81;4150003;28;20697;-85
2023/09/10 07:01:50;;;;;;;1.38;1.10;;;;;;;22.49;81.71;98825.47;4134671;28;20239;-84
2023/09/10 07:03:52;;;;;;;2.25;2.05;;;;;;;23.22;78.79;98817.25;4143310;28;20271;-84
2023/09/10 07:05:54;;;;;;;9.90;2.53;;;;;;;23.56;73.93;98811.78;4136852;28;20209;-85
2023/09/10 07:07:56;;;;;;;3.63;2.80;;;;;;;22.66;79.91;98825.56;4141708;28;20211;-84
2023/09/10 07:09:57;;;;;;;1.77;1.67;;;;;;;23.16;81.16;98818.59;4137856;28;20674;-84
2023/09/10 07:11:59;;;;;;;1.90;1.63;;;;;;;23.59;80.22;98816.69;4153841;28;20227;-84
2023/09/10 07:14:00;;;;;;;1.77;1.65;;;;;;;24.53;72.86;98827.50;4140821;28;20215;-84
2023/09/10 07:16:03;;;;;;;3.42;2.53;;;;;;;24.63;73.20;98821.59;4149292;28;20298;-84
2023/09/10 07:18:05;;;;;;;1.88;1.75;;;;;;;24.68;71.25;98824.22;4153232;28;20685;-84
2023/09/10 07:20:09;;;;;;;2.85;2.08;;;;;;;25.05;70.76;98817.00;4139747;28;20259;-84
2023/09/10 07:22:15;;;;;;;1.65;1.33;;;;;;;24.81;70.81;98823.16;4154269;28;20199;-84
2023/09/10 07:24:17;;;;;;;3.03;1.70;;;;;;;25.03;72.08;98814.53;4139740;28;20704;-84
2023/09/10 07:26:18;;;;;;;2.17;1.38;;;;;;;25.72;67.75;98818.56;4151357;28;20258;-85
2023/09/10 07:28:20;;;;;;;2.25;1.88;;;;;;;25.75;66.82;98812.28;4153320;28;20212;-84
2023/09/10 07:30:22;;;;;;;4.72;2.45;;;;;;;25.42;69.87;98822.59;4138668;28;20216;-85
2023/09/10 07:32:23;;;;;;;3.00;1.90;;;;;;;25.79;68.76;98820.84;4151708;28;20687;-85
2023/09/10 07:34:26;;;;;;;1.77;1.65;;;;;;;26.06;66.26;98829.53;4142937;28;20213;-85
2023/09/10 07:36:27;;;;;;;7.07;1.55;;;;;;;25.87;68.37;98817.94;4141068;28;20220;-85
2023/09/10 07:38:29;;;;;;;1.60;1.40;;;;;;;26.07;66.47;98824.75;4152344;28;20352;-82
2023/09/10 07:40:30;;;;;;;3.28;2.08;;;;;;;26.34;66.11;98815.75;4141588;28;20605;-85
2023/09/10 07:42:32;;;;;;;1.92;1.73;;;;;;;26.28;65.26;98822.75;4138520;28;20669;-85
2023/09/10 07:44:33;;;;;;;1.42;1.23;;;;;;;26.83;64.06;98829.59;4154204;28;20690;-84
2023/09/10 07:46:35;;;;;;;1.85;1.70;;;;;;;27.12;63.94;98829.41;4151767;28;20295;-85
2023/09/10 07:48:36;;;;;;;2.05;1.83;;;;;;;27.30;62.13;98828.03;4156646;28;20227;-85
2023/09/10 07:50:38;;;;;;;2.63;2.38;;;;;;;26.29;65.51;98830.00;4154540;28;20825;-85
2023/09/10 07:52:40;;;;;;;2.55;1.85;;;;;;;27.06;64.40;98828.00;4156638;28;20204;-85
2023/09/10 07:54:44;;;;;;;1.98;1.73;;;;;;;27.63;61.85;98825.91;4143377;28;20243;-84
2023/09/10 07:56:46;;;;;;;1.00;0.90;;;;;;;27.30;62.62;98830.84;4153748;28;20228;-85
2023/09/10 07:58:47;;;;;;;3.33;2.28;;;;;;;26.97;63.22;98827.28;4142216;28;20204;-84
2023/09/10 08:00:53;;;;;;;2.22;1.52;;;;;;;26.67;65.28;98825.81;4154742;28;20266;-86
2023/09/10 08:02:55;;;;;;;1.83;1.67;;;;;;;27.12;64.55;98818.16;4168116;28;20230;-85
2023/09/10 08:04:56;;;;;;;2.35;2.05;;;;;;;26.88;65.29;98826.59;4141777;28;20208;-86
2023/09/10 08:07:00;;;;;;;4.82;2.83;;;;;;;27.13;63.57;98833.03;4154080;28;20398;-86
2023/09/10 08:09:05;;;;;;;2.45;1.55;;;;;;;27.35;64.55;98826.97;4142030;28;20216;-85
2023/09/10 08:11:08;;;;;;;2.40;2.08;;;;;;;27.72;63.13;98823.78;4170294;28;20600;-86
2023/09/10 08:13:13;;;;;;;4.20;2.60;;;;;;;27.24;63.62;98832.25;4145286;28;20706;-85
2023/09/10 08:15:15;;;;;;;2.33;1.48;;;;;;;27.07;64.41;98826.81;4136442;28;20610;-85
2023/09/10 08:17:17;;;;;;;1.73;1.63;;;;;;;27.37;65.19;98833.06;4170190;28;20227;-85
2023/09/10 08:19:19;;;;;;;3.08;2.85;;;;;;;27.55;64.07;98829.66;4153123;28;20244;-85
2023/09/10 08:21:21;;;;;;;2.17;1.95;;;;;;;27.85;62.73;98833.06;4156546;28;20224;-85
2023/09/10 08:23:23;;;;;;;2.13;1.77;;;;;;;28.57;60.58;98816.72;4138870;28;20715;-84
2023/09/10 08:25:24;;;;;;;2.35;1.95;;;;;;;27.59;62.83;98824.16;4152997;28;20222;-84
2023/09/10 08:27:26;;;;;;;1.95;1.65;;;;;;;27.45;62.33;98824.50;4158425;28;20601;-85
2023/09/10 08:29:28;;;;;;;1.80;1.70;;;;;;;27.86;62.04;98815.00;4155010;28;20749;-85
2023/09/10 08:31:30;;;;;;;1.90;1.50;;;;;;;28.68;61.52;98823.47;4151797;28;20252;-85
2023/09/10 08:33:37;;;;;;;2.15;1.88;;;;;;;29.18;59.98;98817.19;4142310;28;20300;-86
2023/09/10 08:35:45;;;;;;;3.53;1.45;;;;;;;28.38;61.24;98816.59;4168168;28;20257;-85
2023/09/10 08:37:47;;;;;;;1.63;1.52;;;;;;;28.20;60.51;98818.03;4150482;28;20310;-85
2023/09/10 08:39:50;;;;;;;2.13;1.95;;;;;;;28.96;59.84;98823.44;4139967;28;20204;-86
2023/09/10 08:42:14;;;;;;;2.17;1.70;;;;;;;28.53;60.71;98815.78;4137071;28;20259;-85
2023/09/10 08:44:17;;;;;;;1.83;1.70;;;;;;;28.36;63.45;98826.56;4145965;28;20204;-85
2023/09/10 08:46:22;;;;;;;1.73;1.52;;;;;;;28.64;61.01;98828.19;4152439;28;20291;-85
2023/09/10 08:48:24;;;;;;;3.13;2.28;;;;;;;28.88;59.86;98833.69;4158988;28;20283;-86
2023/09/10 08:50:36;;;;;;;2.55;1.83;;;;;;;29.55;58.58;98830.63;4154755;28;20204;-85
2023/09/10 08:52:39;;;;;;;1.67;1.52;;;;;;;29.30;58.31;98829.16;4155642;28;20200;-86
2023/09/10 08:54:41;;;;;;;3.47;1.50;;;;;;;29.64;57.14;98834.06;4139223;28;20212;-86
2023/09/10 08:56:43;;;;;;;1.30;1.02;;;;;;;28.94;56.84;98817.31;4138585;28;20226;-85
2023/09/10 08:58:45;;;;;;;1.63;1.13;;;;;;;28.33;58.36;98822.44;4143452;28;20212;-84
2023/09/10 09:00:49;;;;;;;1.95;1.55;;;;;;;28.88;60.63;98822.41;4137047;28;20230;-87
2023/09/10 09:02:52;;;;;;;1.67;1.50;;;;;;;29.27;57.53;98821.47;4145596;28;20623;-85
2023/09/10 09:05:02;;;;;;;2.28;1.60;;;;;;;28.16;58.84;98822.75;4137451;28;21674;-86
2023/09/10 09:07:06;;;;;;;1.50;1.27;;;;;;;28.08;58.85;98808.81;4167650;28;20199;-85
2023/09/10 09:09:10;;;;;;;1.50;1.35;;;;;;;27.98;59.20;98810.13;4138513;28;20251;-84
2023/09/10 09:11:18;;;;;;;1.33;1.23;;;;;;;28.15;59.93;98809.84;4153871;28;20251;-88
2023/09/10 09:13:31;;;;;;;2.33;1.67;;;;;;;29.72;57.73;98809.66;4135354;28;20219;-85
2023/09/10 09:15:34;;;;;;;1.52;1.42;;;;;;;29.24;59.31;98808.06;4170131;28;20323;-86
2023/09/10 09:17:38;;;;;;;1.80;1.20;;;;;;;30.03;55.28;98801.91;4135747;28;20224;-84
2023/09/10 09:19:44;;;;;;;1.40;1.30;;;;;;;29.84;55.82;98809.53;4139423;28;20224;-85
2023/09/10 09:21:51;;;;;;;2.25;1.48;;;;;;;29.58;55.40;98807.31;4137594;28;20690;-86
2023/09/10 09:24:01;;;;;;;1.58;1.10;;;;;;;30.85;54.77;98803.22;4152804;28;20208;-86
2023/09/10 09:26:04;;;;;;;2.92;1.65;;;;;;;30.56;53.52;98801.00;4149522;28;20250;-85
2023/09/10 09:28:05;;;;;;;1.30;1.20;;;;;;;30.46;54.33;98804.44;4150396;28;20713;-84
2023/09/10 09:30:12;;;;;;;1.48;1.17;;;;;;;30.45;54.75;98802.00;4152930;28;20196;-86
2023/09/10 09:32:21;;;;;;;2.50;1.50;;;;;;;31.33;52.50;98808.16;4156706;28;20741;-86
2023/09/10 09:34:22;;;;;;;1.85;1.45;;;;;;;31.09;53.84;98802.84;4140698;28;20818;-86
2023/09/10 09:36:32;;;;;;;1.50;1.05;;;;;;;31.60;51.88;98798.47;4152911;28;20255;-85
2023/09/10 09:38:34;;;;;;;0.95;0.93;;;;;;;32.03;52.00;98792.25;4152689;28;20192;-85